Time;durP1;ratioP1;P1;durP2;ratioP2;P2;SDS_P1;SDS_P2;PMS_P1;PMS_P2;Temp;Humidity;BMP_temperature;BMP_pressure;BME280_temperature;BME280_humidity;BME280_pressure;Samples;Min_cycle;Max_cycle;Signal;HPM_P1;HPM_P2
2022/05/23 00:01:59;;;;;;;;;29.60;24.00;;;;;;;;5036387;28;8761;-67
2022/05/23 00:04:26;;;;;;;;;26.20;23.60;;;;;;;;5036329;28;8765;-67
2022/05/23 00:06:53;;;;;;;;;30.00;25.00;;;;;;;;5037066;28;8729;-68
2022/05/23 00:09:19;;;;;;;;;29.50;26.25;;;;;;;;5036290;28;9479;-61
2022/05/23 00:11:46;;;;;;;;;28.80;25.80;;;;;;;;5026325;28;8810;-71
2022/05/23 00:14:13;;;;;;;;;25.40;21.20;;;;;;;;5016980;28;8850;-71
2022/05/23 00:16:41;;;;;;;;;30.80;26.40;;;;;;;;5016479;28;8825;-65
2022/05/23 00:19:09;;;;;;;;;29.60;24.20;;;;;;;;5015679;28;8755;-72
2022/05/23 00:21:36;;;;;;;;;23.80;21.80;;;;;;;;5014845;28;10053;-72
2022/05/23 00:24:02;;;;;;;;;30.00;27.20;;;;;;;;5016730;28;8723;-46
2022/05/23 00:26:29;;;;;;;;;24.00;22.40;;;;;;;;5031427;28;8717;-66
2022/05/23 00:28:56;;;;;;;;;22.40;18.40;;;;;;;;5050692;28;8724;-63
2022/05/23 00:31:22;;;;;;;;;27.80;21.80;;;;;;;;5036213;28;8776;-68
2022/05/23 00:36:35;;;;;;;;;30.00;28.60;;;;;;;;5035795;28;8853;-68
2022/05/23 00:39:01;;;;;;;;;28.60;25.60;;;;;;;;5035710;28;9104;-68
2022/05/23 00:44:27;;;;;;;;;28.00;23.00;;;;;;;;5015357;28;9389;-67
2022/05/23 00:47:01;;;;;;;;;23.20;22.40;;;;;;;;5015575;28;8947;-68
2022/05/23 00:49:29;;;;;;;;;31.20;24.00;;;;;;;;5018236;28;8844;-65
2022/05/23 00:51:56;;;;;;;;;27.00;21.40;;;;;;;;5018527;28;8762;-69
2022/05/23 00:54:22;;;;;;;;;33.60;26.60;;;;;;;;5017619;28;8774;-69
2022/05/23 00:56:50;;;;;;;;;30.60;23.40;;;;;;;;5029337;28;8748;-69
2022/05/23 00:59:20;;;;;;;;;25.60;21.60;;;;;;;;5038815;28;8732;-67
2022/05/23 01:01:47;;;;;;;;;15.00;14.60;;;;;;;;5036948;28;8764;-68
2022/05/23 01:04:14;;;;;;;;;25.80;24.20;;;;;;;;5037346;28;8764;-69
2022/05/23 01:06:41;;;;;;;;;25.60;20.20;;;;;;;;5036409;28;8754;-70
2022/05/23 01:09:07;;;;;;;;;29.00;22.60;;;;;;;;5037830;28;8728;-68
2022/05/23 01:11:34;;;;;;;;;19.20;16.80;;;;;;;;5028597;28;8821;-68
2022/05/23 01:14:05;;;;;;;;;26.80;21.60;;;;;;;;5017038;28;8719;-67
2022/05/23 01:16:31;;;;;;;;;24.00;19.80;;;;;;;;5018521;28;8838;-67
2022/05/23 01:18:58;;;;;;;;;27.20;21.20;;;;;;;;5019142;28;8783;-68
2022/05/23 01:21:47;;;;;;;;;30.00;22.60;;;;;;;;5018693;28;8779;-68
2022/05/23 01:24:19;;;;;;;;;20.40;18.20;;;;;;;;5019034;28;8731;-68
2022/05/23 01:26:47;;;;;;;;;26.40;22.80;;;;;;;;5028384;28;8709;-68
2022/05/23 01:29:14;;;;;;;;;20.40;19.20;;;;;;;;5037809;28;8737;-68
2022/05/23 01:31:44;;;;;;;;;18.60;15.60;;;;;;;;5038736;28;8751;-67
2022/05/23 01:34:11;;;;;;;;;20.00;19.00;;;;;;;;5037591;28;8776;-70
2022/05/23 01:36:37;;;;;;;;;26.20;20.80;;;;;;;;5037663;28;8772;-67
2022/05/23 01:39:04;;;;;;;;;17.80;17.80;;;;;;;;5033742;28;8780;-68
2022/05/23 01:41:31;;;;;;;;;16.00;15.60;;;;;;;;5029161;28;8727;-68
2022/05/23 01:43:58;;;;;;;;;21.20;17.00;;;;;;;;5017184;28;9248;-67
2022/05/23 01:46:24;;;;;;;;;21.20;19.80;;;;;;;;5018142;28;8885;-63
2022/05/23 01:48:51;;;;;;;;;24.00;21.60;;;;;;;;5018880;28;9423;-68
2022/05/23 01:51:18;;;;;;;;;22.40;21.40;;;;;;;;5015467;28;8771;-67
2022/05/23 01:53:45;;;;;;;;;19.20;15.20;;;;;;;;5017115;28;8782;-64
2022/05/23 01:56:12;;;;;;;;;21.80;20.60;;;;;;;;5022324;28;8764;-70
2022/05/23 02:01:26;;;;;;;;;24.00;19.60;;;;;;;;5036223;28;8740;-71
2022/05/23 02:03:53;;;;;;;;;20.00;17.40;;;;;;;;5038310;28;8741;-70
2022/05/23 02:06:20;;;;;;;;;18.40;17.00;;;;;;;;5037673;28;8772;-71
2022/05/23 02:08:47;;;;;;;;;24.40;18.00;;;;;;;;5037985;28;8784;-71
2022/05/23 02:11:13;;;;;;;;;15.20;14.60;;;;;;;;5031318;28;8805;-73
2022/05/23 02:13:43;;;;;;;;;18.40;16.00;;;;;;;;5017847;28;8777;-69
2022/05/23 02:16:09;;;;;;;;;23.20;19.80;;;;;;;;5018478;28;8759;-71
2022/05/23 02:18:36;;;;;;;;;25.60;17.20;;;;;;;;5016836;28;8783;-68
2022/05/23 02:21:03;;;;;;;;;27.40;19.40;;;;;;;;5018168;28;8778;-69
2022/05/23 02:23:30;;;;;;;;;24.40;17.80;;;;;;;;5017565;28;9308;-68
2022/05/23 02:25:56;;;;;;;;;21.40;20.40;;;;;;;;5020705;28;8836;-69
2022/05/23 02:28:23;;;;;;;;;20.00;15.40;;;;;;;;5038885;28;8764;-70
2022/05/23 02:30:50;;;;;;;;;22.20;20.20;;;;;;;;5020589;28;8771;-73
2022/05/23 02:33:17;;;;;;;;;21.60;17.00;;;;;;;;5037208;28;8780;-68
2022/05/23 02:35:43;;;;;;;;;21.60;19.60;;;;;;;;5038449;28;8776;-68
2022/05/23 02:38:10;;;;;;;;;19.40;17.80;;;;;;;;5037056;28;9473;-69
2022/05/23 02:40:37;;;;;;;;;27.20;21.00;;;;;;;;5036642;28;8764;-72
2022/05/23 02:43:04;;;;;;;;;23.40;20.00;;;;;;;;5019119;28;8743;-73
2022/05/23 02:45:31;;;;;;;;;25.60;21.60;;;;;;;;5017843;28;8758;-72
2022/05/23 02:47:58;;;;;;;;;21.60;18.00;;;;;;;;5017266;28;8880;-54
2022/05/23 02:50:25;;;;;;;;;24.60;22.60;;;;;;;;5017244;28;8877;-51
2022/05/23 02:52:51;;;;;;;;;26.20;23.20;;;;;;;;5018043;28;8773;-72
2022/05/23 02:55:18;;;;;;;;;27.60;20.80;;;;;;;;5016010;28;8743;-72
2022/05/23 02:57:45;;;;;;;;;27.00;21.60;;;;;;;;5035259;28;8874;-72
2022/05/23 03:00:12;;;;;;;;;25.40;22.40;;;;;;;;5035257;28;8783;-71
2022/05/23 03:05:24;;;;;;;;;26.60;22.60;;;;;;;;5036175;28;8788;-71
2022/05/23 03:07:51;;;;;;;;;19.20;16.20;;;;;;;;5036986;28;8780;-72
2022/05/23 03:10:18;;;;;;;;;17.80;17.80;;;;;;;;5035098;28;8760;-55
2022/05/23 03:12:45;;;;;;;;;21.80;20.20;;;;;;;;5016363;28;8776;-72
2022/05/23 03:15:12;;;;;;;;;19.60;17.80;;;;;;;;5015168;28;9405;-64
2022/05/23 03:17:39;;;;;;;;;26.80;19.00;;;;;;;;5014590;28;8782;-69
2022/05/23 03:20:06;;;;;;;;;22.60;18.80;;;;;;;;5013035;28;8782;-70
2022/05/23 03:28:02;;;;;;;;;17.60;13.80;;;;;;;;5016983;28;8755;-73
2022/05/23 03:30:29;;;;;;;;;21.40;18.60;;;;;;;;5016337;28;8757;-70
2022/05/23 03:32:57;;;;;;;;;23.80;16.80;;;;;;;;5015169;28;8841;-60
2022/05/23 03:35:24;;;;;;;;;18.20;16.00;;;;;;;;5015618;28;8957;-69
2022/05/23 03:37:51;;;;;;;;;19.00;16.40;;;;;;;;5015168;28;8813;-71
2022/05/23 03:40:17;;;;;;;;;18.80;14.40;;;;;;;;5015789;28;8758;-64
2022/05/23 03:42:44;;;;;;;;;13.00;13.00;;;;;;;;5034012;28;8883;-73
2022/05/23 03:45:11;;;;;;;;;20.40;15.60;;;;;;;;5034084;28;8899;-59
2022/05/23 03:47:38;;;;;;;;;17.80;13.20;;;;;;;;5035558;28;8760;-72
2022/05/23 03:50:09;;;;;;;;;17.00;15.20;;;;;;;;5017465;28;8882;-64
2022/05/23 03:52:37;;;;;;;;;17.60;14.20;;;;;;;;5035028;28;8760;-72
2022/05/23 03:55:03;;;;;;;;;12.60;11.20;;;;;;;;5036999;28;8744;-53
2022/05/23 03:57:30;;;;;;;;;18.00;13.40;;;;;;;;5018537;28;8817;-67
2022/05/23 03:59:59;;;;;;;;;18.60;15.40;;;;;;;;5016226;28;8735;-55
2022/05/23 04:02:26;;;;;;;;;23.00;14.00;;;;;;;;5014825;28;8773;-66
2022/05/23 04:04:52;;;;;;;;;17.80;14.60;;;;;;;;4997415;28;8878;-71
2022/05/23 04:07:19;;;;;;;;;16.60;13.00;;;;;;;;5014184;28;8750;-60
2022/05/23 04:09:46;;;;;;;;;14.80;13.80;;;;;;;;5015485;28;8742;-72
2022/05/23 04:12:13;;;;;;;;;17.20;14.20;;;;;;;;5029499;28;9405;-58
2022/05/23 04:14:39;;;;;;;;;13.20;11.00;;;;;;;;5036122;28;8740;-65
2022/05/23 04:17:07;;;;;;;;;13.60;12.20;;;;;;;;5035916;28;8778;-75
2022/05/23 04:19:34;;;;;;;;;16.00;12.60;;;;;;;;5031972;28;8776;-76
2022/05/23 04:22:01;;;;;;;;;15.00;13.40;;;;;;;;5035642;28;8865;-75
2022/05/23 04:24:28;;;;;;;;;16.40;14.40;;;;;;;;5038556;28;8773;-72
2022/05/23 04:26:55;;;;;;;;;17.20;15.20;;;;;;;;5028242;28;8783;-73
2022/05/23 04:29:22;;;;;;;;;14.80;14.20;;;;;;;;5018364;28;8937;-67
2022/05/23 04:31:49;;;;;;;;;19.00;14.20;;;;;;;;5021241;28;8782;-65
2022/05/23 04:37:01;;;;;;;;;18.00;15.00;;;;;;;;5018860;28;8751;-65
2022/05/23 04:39:28;;;;;;;;;14.80;13.60;;;;;;;;5017014;28;8841;-65
2022/05/23 04:41:55;;;;;;;;;17.40;16.80;;;;;;;;5030372;28;8800;-67
2022/05/23 04:44:22;;;;;;;;;20.60;18.00;;;;;;;;5037510;28;8768;-65
2022/05/23 04:49:45;;;;;;;;;25.20;16.40;;;;;;;;5038286;28;8699;-68
2022/05/23 04:52:12;;;;;;;;;16.40;13.60;;;;;;;;5039071;28;8764;-68
2022/05/23 04:54:38;;;;;;;;;16.80;14.20;;;;;;;;5038583;28;8798;-67
2022/05/23 04:57:05;;;;;;;;;16.00;14.20;;;;;;;;5026114;28;8775;-66
2022/05/23 04:59:32;;;;;;;;;20.20;15.00;;;;;;;;5018433;28;8802;-70
2022/05/23 05:02:01;;;;;;;;;19.00;12.00;;;;;;;;5018920;28;8817;-62
2022/05/23 05:04:28;;;;;;;;;12.60;11.40;;;;;;;;5017336;28;8838;-62
2022/05/23 05:06:55;;;;;;;;;15.00;14.20;;;;;;;;5019739;28;8788;-70
2022/05/23 05:09:22;;;;;;;;;14.40;9.40;;;;;;;;5017309;28;8873;-58
2022/05/23 05:11:48;;;;;;;;;12.80;9.40;;;;;;;;5028579;28;8777;-69
2022/05/23 05:14:15;;;;;;;;;15.60;10.80;;;;;;;;5039098;28;9421;-65
2022/05/23 05:16:42;;;;;;;;;16.00;11.40;;;;;;;;5038969;28;8774;-53
2022/05/23 05:19:09;;;;;;;;;11.20;9.60;;;;;;;;5038767;28;8827;-71
2022/05/23 05:21:35;;;;;;;;;13.00;9.60;;;;;;;;5037152;28;8752;-59
2022/05/23 05:24:02;;;;;;;;;13.20;11.20;;;;;;;;5038967;28;8784;-72
2022/05/23 05:26:29;;;;;;;;;17.60;13.00;;;;;;;;5031562;28;9090;-67
2022/05/23 05:28:55;;;;;;;;;15.00;11.20;;;;;;;;5020032;28;8775;-63
2022/05/23 05:31:26;;;;;;;;;13.20;12.00;;;;;;;;5020703;28;8748;-70
2022/05/23 05:33:54;;;;;;;;;15.40;12.40;;;;;;;;5020691;28;8732;-68
2022/05/23 05:36:23;;;;;;;;;13.00;10.00;;;;;;;;5017107;28;8884;-71
2022/05/23 05:38:50;;;;;;;;;15.80;13.40;;;;;;;;5019575;28;8830;-68
2022/05/23 05:41:19;;;;;;;;;14.80;13.00;;;;;;;;5026147;28;8757;-74
2022/05/23 05:43:48;;;;;;;;;18.60;14.00;;;;;;;;5038301;28;8779;-67
2022/05/23 05:46:17;;;;;;;;;21.80;16.00;;;;;;;;5039824;28;8741;-68
2022/05/23 05:48:44;;;;;;;;;14.80;7.00;;;;;;;;5040305;28;10066;-74
2022/05/23 05:51:12;;;;;;;;;15.00;14.80;;;;;;;;5039749;28;8772;-69
2022/05/23 05:53:38;;;;;;;;;16.80;14.40;;;;;;;;5038829;28;8788;-69
2022/05/23 05:56:05;;;;;;;;;16.60;13.00;;;;;;;;5034768;28;8909;-70
2022/05/23 05:58:32;;;;;;;;;15.60;14.00;;;;;;;;5018785;28;8834;-67
2022/05/23 06:00:59;;;;;;;;;14.20;11.00;;;;;;;;5019188;28;8755;-71
2022/05/23 06:03:26;;;;;;;;;21.20;14.20;;;;;;;;5018905;28;8842;-65
2022/05/23 06:11:29;;;;;;;;;18.80;13.00;;;;;;;;5023602;28;8882;-71
2022/05/23 06:13:59;;;;;;;;;12.80;11.00;;;;;;;;5037694;28;8761;-71
2022/05/23 06:16:26;;;;;;;;;16.80;12.40;;;;;;;;5035964;28;8756;-65
2022/05/23 06:18:53;;;;;;;;;17.00;14.00;;;;;;;;5038009;28;9483;-70
2022/05/23 06:21:20;;;;;;;;;13.75;11.25;;;;;;;;5037840;28;8788;-61
2022/05/23 06:23:47;;;;;;;;;16.20;12.00;;;;;;;;5037801;28;8776;-73
2022/05/23 06:26:15;;;;;;;;;12.75;12.75;;;;;;;;5032647;28;8797;-71
2022/05/23 06:28:42;;;;;;;;;21.80;14.80;;;;;;;;5016245;28;8978;-70
2022/05/23 06:31:09;;;;;;;;;15.40;13.40;;;;;;;;5017333;28;8757;-68
2022/05/23 06:33:36;;;;;;;;;16.20;12.40;;;;;;;;5017016;28;8787;-69
2022/05/23 06:36:06;;;;;;;;;18.00;13.60;;;;;;;;5016168;28;8786;-54
2022/05/23 06:38:33;;;;;;;;;13.80;10.80;;;;;;;;5017089;28;8992;-62
2022/05/23 06:41:00;;;;;;;;;13.00;10.60;;;;;;;;5021377;28;8854;-70
2022/05/23 06:43:26;;;;;;;;;13.80;11.60;;;;;;;;5037326;28;8768;-69
2022/05/23 06:45:53;;;;;;;;;15.20;12.80;;;;;;;;5037697;28;8749;-72
2022/05/23 06:48:22;;;;;;;;;16.60;14.40;;;;;;;;5037072;28;8848;-70
2022/05/23 06:50:50;;;;;;;;;14.60;12.20;;;;;;;;5037699;28;8760;-60
2022/05/23 06:53:19;;;;;;;;;13.50;11.50;;;;;;;;5036330;28;8779;-68
2022/05/23 06:55:46;;;;;;;;;19.80;15.60;;;;;;;;5034153;28;8788;-52
2022/05/23 06:58:13;;;;;;;;;14.40;12.20;;;;;;;;5017080;28;9455;-65
2022/05/23 07:00:39;;;;;;;;;16.60;13.80;;;;;;;;5016420;28;8763;-69
2022/05/23 07:03:06;;;;;;;;;17.80;14.00;;;;;;;;5015547;28;8770;-61
2022/05/23 07:13:51;;;;;;;;;17.20;13.20;;;;;;;;5036637;28;8772;-68
2022/05/23 07:16:18;;;;;;;;;19.60;13.60;;;;;;;;5035430;28;8760;-68
2022/05/23 07:18:45;;;;;;;;;14.00;12.00;;;;;;;;5019286;28;9005;-64
2022/05/23 07:21:12;;;;;;;;;18.60;13.60;;;;;;;;5035657;28;8768;-59
2022/05/23 07:23:39;;;;;;;;;17.20;13.00;;;;;;;;5036959;28;8899;-70
2022/05/23 07:26:09;;;;;;;;;10.80;9.80;;;;;;;;5033663;28;8783;-60
2022/05/23 07:28:36;;;;;;;;;16.60;11.20;;;;;;;;5017352;28;8763;-69
2022/05/23 07:31:03;;;;;;;;;18.00;10.80;;;;;;;;5017201;28;8755;-67
2022/05/23 07:33:30;;;;;;;;;17.20;11.80;;;;;;;;5017017;28;9389;-67
2022/05/23 07:35:57;;;;;;;;;12.20;11.80;;;;;;;;5016858;28;8758;-68
2022/05/23 07:38:25;;;;;;;;;12.40;12.00;;;;;;;;5016641;28;8819;-69
2022/05/23 07:40:52;;;;;;;;;14.75;13.00;;;;;;;;5019264;28;8845;-67
2022/05/23 07:43:19;;;;;;;;;12.00;9.00;;;;;;;;5036686;28;8879;-66
2022/05/23 07:45:45;;;;;;;;;13.20;10.00;;;;;;;;5036482;28;9578;-67
2022/05/23 07:48:12;;;;;;;;;15.40;10.60;;;;;;;;5036075;28;8792;-66
2022/05/23 07:50:39;;;;;;;;;11.60;11.00;;;;;;;;5035071;28;9491;-67
2022/05/23 08:01:22;;;;;;;;;13.40;9.20;;;;;;;;4989790;28;8783;-68
2022/05/23 08:03:52;;;;;;;;;16.80;11.00;;;;;;;;5019121;28;8775;-65
2022/05/23 08:06:19;;;;;;;;;11.40;9.20;;;;;;;;5020133;28;9377;-58
2022/05/23 08:08:45;;;;;;;;;11.80;10.20;;;;;;;;5020449;28;8778;-70
2022/05/23 08:11:13;;;;;;;;;13.20;10.20;;;;;;;;5025564;28;8827;-67
2022/05/23 08:13:40;;;;;;;;;21.20;14.00;;;;;;;;5039589;28;8764;-60
2022/05/23 08:16:07;;;;;;;;;11.40;8.60;;;;;;;;5039987;28;8803;-70
2022/05/23 08:18:34;;;;;;;;;6.20;1.20;;;;;;;;5038377;28;8878;-72
2022/05/23 08:21:00;;;;;;;;;6.80;6.80;;;;;;;;5038796;28;8850;-68
2022/05/23 08:23:29;;;;;;;;;14.60;10.20;;;;;;;;5039511;28;8788;-66
2022/05/23 08:25:56;;;;;;;;;9.00;5.40;;;;;;;;5034521;28;8839;-71
2022/05/23 08:28:23;;;;;;;;;13.80;10.40;;;;;;;;5018568;28;8750;-65
2022/05/23 08:30:49;;;;;;;;;13.00;11.80;;;;;;;;5020014;28;8739;-66
2022/05/23 08:33:16;;;;;;;;;10.20;8.40;;;;;;;;5020152;28;8735;-71
2022/05/23 08:35:44;;;;;;;;;9.40;7.40;;;;;;;;5020193;28;8735;-68
2022/05/23 08:38:10;;;;;;;;;9.20;7.40;;;;;;;;5019646;28;8804;-67
2022/05/23 08:40:55;;;;;;;;;11.40;7.80;;;;;;;;5018155;28;9554;-70
2022/05/23 08:43:27;;;;;;;;;13.40;10.40;;;;;;;;5038866;28;8733;-63
2022/05/23 08:45:55;;;;;;;;;12.80;6.20;;;;;;;;5039564;28;8756;-58
2022/05/23 08:48:28;;;;;;;;;15.40;9.80;;;;;;;;5038406;28;9034;-70
2022/05/23 08:51:10;;;;;;;;;10.20;10.20;;;;;;;;5038174;28;8752;-71
2022/05/23 08:53:37;;;;;;;;;9.60;8.80;;;;;;;;5039358;28;8919;-62
2022/05/23 08:56:05;;;;;;;;;12.60;7.80;;;;;;;;5034283;28;8779;-69
2022/05/23 08:58:36;;;;;;;;;17.20;11.20;;;;;;;;5018377;28;8833;-69
2022/05/23 09:01:22;;;;;;;;;13.60;9.00;;;;;;;;5002688;28;8816;-69
2022/05/23 09:03:49;;;;;;;;;12.00;8.00;;;;;;;;5019473;28;8743;-63
2022/05/23 09:06:36;;;;;;;;;9.80;8.60;;;;;;;;5018333;28;8759;-71
2022/05/23 09:09:10;;;;;;;;;11.60;8.60;;;;;;;;5018219;28;8836;-60
2022/05/23 09:11:43;;;;;;;;;13.80;8.60;;;;;;;;5027548;28;8773;-68
2022/05/23 09:14:11;;;;;;;;;10.60;9.40;;;;;;;;5040911;28;8789;-70
2022/05/23 09:16:42;;;;;;;;;13.00;9.00;;;;;;;;5058149;28;8756;-65
2022/05/23 09:19:12;;;;;;;;;12.60;10.80;;;;;;;;5038226;28;8793;-77
2022/05/23 09:24:23;;;;;;;;;10.60;9.80;;;;;;;;5037916;28;8744;-66
2022/05/23 09:26:50;;;;;;;;;11.00;10.60;;;;;;;;5017875;28;9423;-73
2022/05/23 09:29:17;;;;;;;;;14.40;12.20;;;;;;;;5019165;28;9129;-66
2022/05/23 09:31:58;;;;;;;;;13.20;9.00;;;;;;;;5018734;28;8744;-70
2022/05/23 09:34:35;;;;;;;;;13.20;10.60;;;;;;;;5018349;28;8914;-70
2022/05/23 09:37:02;;;;;;;;;9.00;7.00;;;;;;;;5019268;28;8848;-70
2022/05/23 09:39:30;;;;;;;;;10.80;9.80;;;;;;;;5017174;28;8842;-70
2022/05/23 09:47:45;;;;;;;;;12.80;10.00;;;;;;;;5038872;28;8772;-73
2022/05/23 09:50:31;;;;;;;;;13.20;9.20;;;;;;;;5038977;28;8906;-68
2022/05/23 09:52:59;;;;;;;;;9.20;7.80;;;;;;;;5038871;28;8780;-74
2022/05/23 09:55:35;;;;;;;;;11.00;8.80;;;;;;;;5037026;28;8737;-64
2022/05/23 09:58:06;;;;;;;;;13.40;12.00;;;;;;;;5034555;28;8766;-70
2022/05/23 10:00:37;;;;;;;;;13.80;9.60;;;;;;;;5017560;28;8786;-76
2022/05/23 10:03:05;;;;;;;;;12.00;7.80;;;;;;;;5017885;28;8857;-67
2022/05/23 10:05:36;;;;;;;;;12.40;9.00;;;;;;;;5018501;28;8905;-79
2022/05/23 10:08:04;;;;;;;;;8.00;8.00;;;;;;;;5018313;28;8774;-65
2022/05/23 10:10:34;;;;;;;;;10.00;6.40;;;;;;;;5018415;28;8747;-56
2022/05/23 10:13:16;;;;;;;;;10.20;6.20;;;;;;;;5033836;28;8747;-75
2022/05/23 10:15:45;;;;;;;;;6.20;6.20;;;;;;;;5018897;28;8763;-74
2022/05/23 10:18:19;;;;;;;;;7.80;7.00;;;;;;;;5016595;28;8905;-79
2022/05/23 10:20:46;;;;;;;;;8.60;7.60;;;;;;;;5033324;28;8787;-80
2022/05/23 10:23:19;;;;;;;;;13.80;10.60;;;;;;;;5018176;28;8862;-80
2022/05/23 10:25:55;;;;;;;;;10.60;8.80;;;;;;;;5019850;28;8751;-78
2022/05/23 10:28:23;;;;;;;;;9.00;4.80;;;;;;;;5038957;28;8733;-83
2022/05/23 10:30:57;;;;;;;;;8.20;7.40;;;;;;;;5038512;28;8741;-81
2022/05/23 10:33:24;;;;;;;;;6.80;5.80;;;;;;;;5036576;28;8772;-54
2022/05/23 10:35:54;;;;;;;;;10.40;8.60;;;;;;;;5038052;28;8764;-66
2022/05/23 10:44:10;;;;;;;;;10.40;8.60;;;;;;;;5017181;28;8755;-62
2022/05/23 10:46:37;;;;;;;;;9.40;6.80;;;;;;;;5033163;28;9572;-59
2022/05/23 10:49:16;;;;;;;;;8.60;8.60;;;;;;;;5017220;28;8759;-80
2022/05/23 10:52:02;;;;;;;;;10.00;9.00;;;;;;;;5016824;28;8759;-59
2022/05/23 10:54:41;;;;;;;;;8.20;8.00;;;;;;;;5017616;28;8777;-71
2022/05/23 10:57:26;;;;;;;;;8.20;7.20;;;;;;;;5030319;28;8769;-71
2022/05/23 11:00:03;;;;;;;;;8.00;7.40;;;;;;;;5037663;28;8786;-66
2022/05/23 11:02:39;;;;;;;;;10.60;5.00;;;;;;;;5037269;28;8788;-70
2022/05/23 11:05:21;;;;;;;;;10.20;9.60;;;;;;;;5037319;28;9397;-68
2022/05/23 11:08:17;;;;;;;;;7.60;7.40;;;;;;;;5035959;28;8785;-68
2022/05/23 11:10:43;;;;;;;;;11.40;7.60;;;;;;;;4982873;28;8815;-69
2022/05/23 11:13:29;;;;;;;;;10.40;7.20;;;;;;;;5016464;28;9454;-70
2022/05/23 11:15:55;;;;;;;;;11.20;7.80;;;;;;;;5017082;28;8786;-67
2022/05/23 11:18:37;;;;;;;;;13.40;10.40;;;;;;;;5017265;28;8770;-69
2022/05/23 11:21:05;;;;;;;;;16.00;13.20;;;;;;;;5017492;28;8806;-79
2022/05/23 11:23:35;;;;;;;;;11.80;10.60;;;;;;;;5015773;28;8865;-57
2022/05/23 11:26:03;;;;;;;;;16.60;12.80;;;;;;;;5020461;28;8753;-66
2022/05/23 11:34:12;;;;;;;;;9.60;8.40;;;;;;;;5025600;28;8760;-66
2022/05/23 11:39:51;;;;;;;;;11.80;9.60;;;;;;;;5005886;28;8870;-72
2022/05/23 11:42:27;;;;;;;;;9.60;8.60;;;;;;;;5022655;28;8755;-59
2022/05/23 11:44:56;;;;;;;;;12.40;10.00;;;;;;;;5017320;28;8840;-78
2022/05/23 11:47:26;;;;;;;;;14.40;12.00;;;;;;;;5016985;28;8770;-66
2022/05/23 11:50:02;;;;;;;;;11.80;11.00;;;;;;;;5016977;28;8754;-73
2022/05/23 11:52:36;;;;;;;;;14.60;10.00;;;;;;;;5017099;28;8743;-82
2022/05/23 11:55:02;;;;;;;;;9.80;8.20;;;;;;;;5017932;28;8795;-62
2022/05/23 11:57:31;;;;;;;;;10.20;10.20;;;;;;;;5032043;28;8816;-82
2022/05/23 11:59:58;;;;;;;;;16.80;13.80;;;;;;;;5036610;28;9563;-75
2022/05/23 12:02:26;;;;;;;;;17.20;12.60;;;;;;;;5036468;28;8914;-80
2022/05/23 12:04:55;;;;;;;;;19.20;12.80;;;;;;;;5035317;28;8764;-82
2022/05/23 12:07:41;;;;;;;;;17.00;13.20;;;;;;;;5036747;28;8899;-66
2022/05/23 12:10:31;;;;;;;;;13.60;10.00;;;;;;;;5037497;28;8764;-70
2022/05/23 12:12:58;;;;;;;;;15.40;12.00;;;;;;;;5023727;28;8850;-69
2022/05/23 12:15:43;;;;;;;;;15.60;12.80;;;;;;;;5016680;28;8952;-70
2022/05/23 12:18:22;;;;;;;;;19.80;14.00;;;;;;;;5016743;28;8763;-69
2022/05/23 12:20:49;;;;;;;;;13.60;12.80;;;;;;;;5014614;28;8783;-70
2022/05/23 12:23:35;;;;;;;;;17.60;13.80;;;;;;;;5016454;28;8840;-70
2022/05/23 12:26:29;;;;;;;;;11.40;11.40;;;;;;;;5015592;28;8779;-70
2022/05/23 12:28:59;;;;;;;;;12.20;10.00;;;;;;;;5016046;28;8832;-69
2022/05/23 12:31:27;;;;;;;;;15.00;14.00;;;;;;;;5031544;28;8743;-69
2022/05/23 12:34:03;;;;;;;;;19.80;16.80;;;;;;;;5017408;28;8746;-70
2022/05/23 12:36:31;;;;;;;;;16.40;11.20;;;;;;;;5016342;28;9443;-69
2022/05/23 12:39:01;;;;;;;;;17.40;12.00;;;;;;;;5014958;28;8795;-70
2022/05/23 12:41:27;;;;;;;;;21.40;13.80;;;;;;;;5022909;28;8830;-69
2022/05/23 12:43:54;;;;;;;;;14.40;12.00;;;;;;;;5036704;28;8760;-70
2022/05/23 12:46:21;;;;;;;;;16.40;11.80;;;;;;;;5040361;28;8763;-69
2022/05/23 12:48:57;;;;;;;;;19.00;11.40;;;;;;;;5040293;28;8767;-70
2022/05/23 12:51:30;;;;;;;;;21.40;14.60;;;;;;;;5038861;28;8768;-69
2022/05/23 12:54:16;;;;;;;;;21.40;15.20;;;;;;;;5039855;28;8768;-70
2022/05/23 12:57:01;;;;;;;;;25.80;16.00;;;;;;;;5030923;28;8821;-70
2022/05/23 12:59:47;;;;;;;;;19.40;13.60;;;;;;;;5020214;28;8790;-69
2022/05/23 13:02:15;;;;;;;;;16.20;13.00;;;;;;;;5020321;28;8775;-70
2022/05/23 13:05:01;;;;;;;;;16.80;12.20;;;;;;;;5018735;28;9731;-70
2022/05/23 13:07:27;;;;;;;;;17.00;11.60;;;;;;;;5018774;28;8755;-69
2022/05/23 13:09:54;;;;;;;;;19.40;12.40;;;;;;;;5020346;28;8759;-69
2022/05/23 13:12:42;;;;;;;;;20.00;18.80;;;;;;;;5033778;28;8851;-69
2022/05/23 13:15:09;;;;;;;;;19.40;15.60;;;;;;;;5040053;28;9421;-70
2022/05/23 13:17:42;;;;;;;;;16.20;16.20;;;;;;;;5038178;28;8875;-69
2022/05/23 13:23:12;;;;;;;;;21.20;16.60;;;;;;;;5039525;28;8776;-70
2022/05/23 13:25:39;;;;;;;;;15.60;13.80;;;;;;;;5038173;28;8891;-70
2022/05/23 13:28:10;;;;;;;;;20.80;16.80;;;;;;;;5020127;28;8873;-70
2022/05/23 13:30:37;;;;;;;;;17.80;15.00;;;;;;;;5018369;28;8786;-69
2022/05/23 13:33:04;;;;;;;;;16.00;13.20;;;;;;;;5018519;28;8780;-70
2022/05/23 13:35:31;;;;;;;;;20.80;16.40;;;;;;;;5018987;28;8817;-70
2022/05/23 13:38:12;;;;;;;;;23.00;14.20;;;;;;;;5019313;28;8810;-70
2022/05/23 13:40:43;;;;;;;;;23.40;16.80;;;;;;;;5018872;28;8808;-70
2022/05/23 13:43:14;;;;;;;;;19.20;15.20;;;;;;;;5038462;28;8772;-70
2022/05/23 13:45:42;;;;;;;;;16.60;16.60;;;;;;;;5039333;28;8728;-70
2022/05/23 13:48:20;;;;;;;;;22.20;15.80;;;;;;;;5039077;28;8783;-70
2022/05/23 13:50:51;;;;;;;;;22.60;16.80;;;;;;;;5021049;28;8776;-70
2022/05/23 13:53:19;;;;;;;;;20.60;15.40;;;;;;;;5037828;28;8780;-68
2022/05/23 13:55:47;;;;;;;;;19.60;16.40;;;;;;;;5018959;28;8752;-70
2022/05/23 13:58:19;;;;;;;;;19.80;16.40;;;;;;;;5018299;28;9392;-70
2022/05/23 14:01:09;;;;;;;;;18.40;14.60;;;;;;;;5017468;28;8795;-70
2022/05/23 14:03:43;;;;;;;;;15.40;13.40;;;;;;;;5013430;28;8932;-70
2022/05/23 14:06:13;;;;;;;;;19.60;16.40;;;;;;;;5018859;28;8771;-70
2022/05/23 14:08:44;;;;;;;;;18.60;15.00;;;;;;;;5018396;28;8854;-70
2022/05/23 14:11:20;;;;;;;;;19.60;14.80;;;;;;;;5023201;28;8769;-70
2022/05/23 14:13:47;;;;;;;;;19.40;14.80;;;;;;;;5037252;28;8744;-70
2022/05/23 14:16:16;;;;;;;;;16.00;11.40;;;;;;;;5038758;28;9460;-70
2022/05/23 14:18:43;;;;;;;;;17.00;15.60;;;;;;;;5036841;28;8785;-69
2022/05/23 14:21:28;;;;;;;;;16.80;13.60;;;;;;;;5038167;28;8861;-70
2022/05/23 14:23:56;;;;;;;;;17.60;14.20;;;;;;;;5038593;28;8752;-70
2022/05/23 14:26:22;;;;;;;;;16.40;13.80;;;;;;;;5031736;28;9416;-70
2022/05/23 14:28:50;;;;;;;;;16.00;15.00;;;;;;;;5018396;28;8782;-70
2022/05/23 14:31:29;;;;;;;;;16.40;16.00;;;;;;;;5018580;28;8833;-69
2022/05/23 14:33:59;;;;;;;;;12.80;12.40;;;;;;;;5017165;28;8767;-70
2022/05/23 14:36:26;;;;;;;;;14.00;13.60;;;;;;;;5016915;28;8743;-69
2022/05/23 14:38:54;;;;;;;;;20.00;14.20;;;;;;;;5018286;28;8809;-70
2022/05/23 14:41:26;;;;;;;;;21.00;15.60;;;;;;;;5023370;28;8765;-69
2022/05/23 14:44:28;;;;;;;;;17.20;17.00;;;;;;;;5037685;28;8760;-70
2022/05/23 14:47:02;;;;;;;;;11.20;8.40;;;;;;;;5037813;28;9402;-70
2022/05/23 14:49:32;;;;;;;;;17.20;12.40;;;;;;;;5037970;28;8874;-69
2022/05/23 14:51:59;;;;;;;;;13.60;9.60;;;;;;;;5038128;28;8732;-70
2022/05/23 15:00:37;;;;;;;;;17.20;11.60;;;;;;;;5024983;28;9459;-70
2022/05/23 15:02:57;;;;;;;;;13.20;11.60;;;;;;;;5018168;28;8779;-70
2022/05/23 15:05:24;;;;;;;;;10.00;6.80;;;;;;;;5017643;28;8778;-69
2022/05/23 15:08:00;;;;;;;;;11.00;10.20;;;;;;;;5017704;28;8868;-70
2022/05/23 15:10:27;;;;;;;;;15.80;12.40;;;;;;;;5017903;28;8758;-69
2022/05/23 15:12:54;;;;;;;;;15.40;11.80;;;;;;;;5036901;28;8777;-70
2022/05/23 15:15:20;;;;;;;;;12.60;9.40;;;;;;;;5035766;28;8775;-69
2022/05/23 15:17:47;;;;;;;;;16.20;13.40;;;;;;;;5037311;28;8776;-70
2022/05/23 15:20:14;;;;;;;;;9.80;9.60;;;;;;;;5036890;28;8802;-70
2022/05/23 15:22:41;;;;;;;;;6.40;3.80;;;;;;;;5036867;28;8728;-69
2022/05/23 15:25:11;;;;;;;;;14.00;9.00;;;;;;;;5037422;28;8732;-69
2022/05/23 15:27:38;;;;;;;;;15.40;11.60;;;;;;;;5020437;28;8776;-69
2022/05/23 15:30:06;;;;;;;;;12.40;12.00;;;;;;;;5017380;28;8877;-70
2022/05/23 15:32:33;;;;;;;;;13.80;11.00;;;;;;;;5016999;28;8806;-70
2022/05/23 15:34:59;;;;;;;;;17.40;11.80;;;;;;;;5015703;28;8766;-70
2022/05/23 15:37:26;;;;;;;;;13.60;12.00;;;;;;;;5016680;28;8865;-68
2022/05/23 15:39:53;;;;;;;;;11.80;11.40;;;;;;;;5017630;28;8758;-70
2022/05/23 15:42:24;;;;;;;;;14.00;13.40;;;;;;;;5030985;28;9032;-69
2022/05/23 15:44:51;;;;;;;;;12.40;11.40;;;;;;;;5035815;28;8764;-70
2022/05/23 15:47:18;;;;;;;;;13.80;12.20;;;;;;;;5035558;28;8760;-67
2022/05/23 15:49:45;;;;;;;;;13.80;13.20;;;;;;;;5035177;28;8804;-69
2022/05/23 15:52:12;;;;;;;;;13.60;9.40;;;;;;;;5037353;28;8779;-69
2022/05/23 15:54:39;;;;;;;;;16.60;10.60;;;;;;;;5036833;28;8801;-70
2022/05/23 15:57:05;;;;;;;;;12.60;9.40;;;;;;;;5024776;28;8767;-70
2022/05/23 15:59:32;;;;;;;;;13.00;10.20;;;;;;;;5014962;28;9004;-70
2022/05/23 16:01:59;;;;;;;;;14.40;11.60;;;;;;;;5017222;28;8767;-69
2022/05/23 16:04:27;;;;;;;;;11.20;10.00;;;;;;;;5016891;28;8766;-68